Portada
METAR-TAF:

METAR-TAF

Aeroports :

Salamanca, Espanya

latitud: 40-57N, longitud: 005-30W, altitud: 793 m

Observació

L'informe es va fer fa 14 minuts, a les 20:30 UTC
Vent calma
Temperatura 20°C
Humitat 64%
Pressió 1016 hPa
Visibilitat 10 km o més
sense núvols per sota de 1500 mi sense presència de cumulonimbus.

METAR: LESA 012030Z AUTO 00000KT CAVOK 20/13 Q1016

Hora: 22:44 (20:44 UTC)

Pronòstic

L'informe es va fer fa 3 hores i 44 minuts, a les 17:00 UTC
Pronòstic vàlid del 01 a les 18 UTC al 02 a les 18 UTC
Vent 5 kt amb direcció variable
Visibilitat 10 km o més
Escasses núvols a una alçada de 4500 ft
Probabilitat 40% :
Temporalment
l' 01 a les 18 UTC al 01 a les 20 UTC
Vent 10 kt del Oest
Escasses núvols a una alçada de 4500 ft, Cumulus congestus.

TAF: LESA 011700Z 0118/0218 VRB05KT 9999 FEW045 TX28/0216Z TN12/0205Z PROB40 TEMPO 0118/0120 27010KT FEW045TCU

Observacions i pronòstics meteorològics de més de 4000 aeroports (METAR i TAF).

Les estacions disponibles són els punts grocs i vermells al mapa.

Posi el ratolí al punt desitjat per veure el nom de l'estació.

Feu clic per veure les observacions i els pronòstics meteorològics.

Per canviar el mapa: feu clic els botons verds amb una creu de color negre per apropar; al botó verd amb un guió per allunyar la imatge; o en les fletxes verdes per a mapes adjacents.


METAR-TAF: